Time;durP1;ratioP1;P1;durP2;ratioP2;P2;SDS_P1;SDS_P2;PMS_P1;PMS_P2;Temp;Humidity;BMP_temperature;BMP_pressure;BME280_temperature;BME280_humidity;BME280_pressure;Samples;Min_cycle;Max_cycle;Signal;HPM_P1;HPM_P2
2023/07/13 00:01:32;;;;;;;;;48.25;40.50;;;;;19.65;64.13;101580.44;6186066;23;45337;-76
2023/07/13 00:03:57;;;;;;;;;52.00;43.25;;;;;19.74;63.57;101596.72;6185872;23;45267;-76
2023/07/13 00:06:23;;;;;;;;;47.50;41.50;;;;;19.69;63.71;101589.97;6185160;23;45642;-76
2023/07/13 00:08:49;;;;;;;;;45.50;40.25;;;;;19.56;62.37;101573.91;6185577;23;45333;-75
2023/07/13 00:11:16;;;;;;;;;49.00;42.25;;;;;19.69;63.86;101598.03;6182769;23;45284;-76
2023/07/13 00:13:42;;;;;;;;;50.00;43.00;;;;;19.64;63.33;101595.69;6183938;23;45254;-76
2023/07/13 00:16:10;;;;;;;;;42.33;38.00;;;;;19.67;62.20;101595.44;6183139;23;45509;-76
2023/07/13 00:18:36;;;;;;;;;52.33;44.67;;;;;19.66;63.57;101607.19;6185713;23;46091;-76
2023/07/13 00:21:05;;;;;;;;;52.33;44.33;;;;;19.65;63.01;101608.13;6158713;23;45284;-76
2023/07/13 00:23:35;;;;;;;;;54.50;45.75;;;;;19.70;64.32;101610.47;6183085;23;45321;-76
2023/07/13 00:26:01;;;;;;;;;49.25;41.75;;;;;19.62;63.97;101594.06;6185379;23;45365;-76
2023/07/13 00:28:27;;;;;;;;;55.33;46.33;;;;;19.74;63.24;101614.66;6183707;23;46970;-76
2023/07/13 00:30:52;;;;;;;;;44.50;39.00;;;;;19.74;64.12;101609.28;6158887;23;45306;-76
2023/07/13 00:33:17;;;;;;;;;52.33;44.33;;;;;19.78;64.50;101602.72;6183604;23;45505;-76
2023/07/13 00:35:43;;;;;;;;;49.75;42.50;;;;;19.81;64.13;101610.56;6185912;23;45295;-76
2023/07/13 00:38:09;;;;;;;;;53.67;45.67;;;;;19.84;64.46;101606.78;6184291;23;47335;-76
2023/07/13 00:40:35;;;;;;;;;44.75;39.25;;;;;19.80;63.76;101600.78;6186757;23;45519;-76
2023/07/13 00:43:00;;;;;;;;;53.00;44.67;;;;;19.86;62.82;101616.44;6185217;23;45421;-75
2023/07/13 00:45:25;;;;;;;;;50.50;43.50;;;;;19.85;63.78;101612.06;6185673;23;45413;-75
2023/07/13 00:47:51;;;;;;;;;52.67;44.00;;;;;19.84;64.14;101614.84;6184591;23;45301;-75
2023/07/13 00:50:19;;;;;;;;;44.50;39.25;;;;;19.88;64.74;101622.56;6186436;23;45205;-75
2023/07/13 00:52:49;;;;;;;;;52.00;44.25;;;;;19.83;63.16;101616.66;6187108;23;45299;-75
2023/07/13 00:55:15;;;;;;;;;53.00;45.00;;;;;19.83;63.10;101610.47;6183666;23;45266;-75
2023/07/13 00:57:42;;;;;;;;;53.75;45.50;;;;;19.83;63.32;101619.34;6184631;23;45737;-75
2023/07/13 01:00:08;;;;;;;;;51.60;44.20;;;;;19.84;63.91;101615.69;6185897;23;45256;-75
2023/07/13 01:02:37;;;;;;;;;52.80;43.40;;;;;19.87;63.58;101623.53;6185318;23;45408;-75
2023/07/13 01:05:13;;;;;;;;;48.25;41.25;;;;;19.91;65.63;101627.72;6158272;23;45251;-75
2023/07/13 01:07:40;;;;;;;;;36.75;33.25;;;;;19.82;65.53;101623.03;6185257;23;46201;-75
2023/07/13 01:10:07;;;;;;;;;49.50;42.75;;;;;19.85;64.84;101619.25;6185577;23;45457;-74
2023/07/13 01:12:34;;;;;;;;;37.50;35.00;;;;;19.85;65.14;101622.78;6184989;23;45378;-74
2023/07/13 01:15:01;;;;;;;;;35.75;33.75;;;;;19.88;65.79;101622.56;6184790;23;45602;-75
2023/07/13 01:17:28;;;;;;;;;32.75;31.00;;;;;19.88;65.51;101632.44;6183142;23;46471;-75
2023/07/13 01:19:54;;;;;;;;;52.25;44.50;;;;;19.88;64.95;101633.31;6185750;23;45509;-75
2023/07/13 01:22:25;;;;;;;;;49.67;41.00;;;;;19.96;64.76;101636.28;6185539;23;45317;-74
2023/07/13 01:24:51;;;;;;;;;52.75;44.50;;;;;19.94;64.17;101634.69;6185431;23;45295;-75
2023/07/13 01:27:21;;;;;;;;;53.75;44.75;;;;;19.96;63.63;101635.44;6182969;23;47100;-74
2023/07/13 01:29:47;;;;;;;;;51.00;43.50;;;;;19.90;62.79;101628.66;6184794;23;45510;-74
2023/07/13 01:32:23;;;;;;;;;52.67;44.67;;;;;19.89;63.54;101632.34;6184838;23;45391;-75
2023/07/13 01:34:54;;;;;;;;;51.25;44.00;;;;;19.88;63.52;101630.63;6183453;23;45389;-75
2023/07/13 01:37:20;;;;;;;;;50.75;43.00;;;;;19.93;64.36;101643.69;6182450;23;45599;-75
2023/07/13 01:39:46;;;;;;;;;47.25;41.25;;;;;19.88;63.80;101644.03;6185005;23;45376;-75
2023/07/13 01:42:12;;;;;;;;;53.50;45.50;;;;;19.90;63.85;101649.28;6182394;23;45231;-75
2023/07/13 01:44:37;;;;;;;;;49.00;42.50;;;;;19.83;63.69;101645.38;6184826;23;45400;-76
2023/07/13 01:47:02;;;;;;;;;52.67;44.67;;;;;19.88;63.77;101654.78;6182539;23;48300;-75
2023/07/13 01:49:28;;;;;;;;;53.50;44.75;;;;;19.86;62.86;101651.34;6184684;23;45305;-75
2023/07/13 01:51:53;;;;;;;;;42.67;37.00;;;;;19.77;62.68;101638.59;6182349;23;45240;-75
2023/07/13 01:54:19;;;;;;;;;54.67;45.00;;;;;19.80;63.56;101642.91;6185198;23;45200;-75
2023/07/13 01:56:44;;;;;;;;;58.00;47.75;;;;;19.80;63.88;101643.72;6184707;23;46380;-75
2023/07/13 01:59:09;;;;;;;;;51.75;43.25;;;;;19.78;62.35;101645.69;6182940;23;45242;-74
2023/07/13 02:01:35;;;;;;;;;52.50;44.00;;;;;19.60;62.69;101612.97;6182510;23;45480;-75
2023/07/13 02:04:00;;;;;;;;;62.00;50.25;;;;;19.63;62.13;101626.16;6185036;23;45512;-75
2023/07/13 02:06:25;;;;;;;;;54.00;44.75;;;;;19.75;63.38;101653.97;6184893;23;45199;-75
2023/07/13 02:08:51;;;;;;;;;50.25;42.50;;;;;19.73;62.52;101642.47;6185219;23;45211;-75
2023/07/13 02:11:17;;;;;;;;;53.25;45.00;;;;;19.70;63.39;101634.63;6182150;23;45372;-75
2023/07/13 02:13:42;;;;;;;;;51.50;44.00;;;;;19.70;62.53;101645.34;6182344;23;45500;-76
2023/07/13 02:16:08;;;;;;;;;54.33;45.00;;;;;19.66;62.82;101642.06;6184987;23;45340;-75
2023/07/13 02:18:33;;;;;;;;;51.25;44.00;;;;;19.70;63.09;101650.72;6186317;23;45309;-76
2023/07/13 02:20:58;;;;;;;;;47.50;41.50;;;;;19.64;64.24;101633.25;6186404;23;45191;-76
2023/07/13 02:23:24;;;;;;;;;49.75;43.00;;;;;19.67;62.86;101642.91;6184234;23;45238;-76
2023/07/13 02:25:49;;;;;;;;;53.00;45.00;;;;;19.61;64.06;101636.16;6183867;23;46189;-75
2023/07/13 02:28:15;;;;;;;;;52.33;44.33;;;;;19.61;63.47;101646.03;6186586;23;45408;-76
2023/07/13 02:30:40;;;;;;;;;49.33;42.00;;;;;19.56;63.49;101629.41;6186546;23;45549;-76
2023/07/13 02:33:05;;;;;;;;;49.25;42.00;;;;;19.57;63.76;101647.19;6186488;23;45472;-76
2023/07/13 02:35:31;;;;;;;;;51.00;43.75;;;;;19.55;63.09;101641.97;6184705;23;47117;-75
2023/07/13 02:37:56;;;;;;;;;56.33;47.33;;;;;19.52;63.60;101634.13;6186131;23;46003;-76
2023/07/13 02:40:22;;;;;;;;;62.00;51.00;;;;;19.45;61.89;101619.44;6187471;23;45207;-75
2023/07/13 02:42:47;;;;;;;;;54.50;46.50;;;;;19.44;62.03;101630.25;6186018;23;45531;-76
2023/07/13 02:45:13;;;;;;;;;51.00;44.00;;;;;19.41;62.37;101625.97;6187821;23;45411;-76
2023/07/13 02:47:40;;;;;;;;;51.75;43.75;;;;;19.44;62.34;101635.63;6189703;23;45235;-75
2023/07/13 02:50:06;;;;;;;;;54.00;45.67;;;;;19.47;62.64;101643.50;6186733;23;45240;-75
2023/07/13 02:52:31;;;;;;;;;53.00;45.50;;;;;19.41;62.37;101636.72;6186229;23;45243;-75
2023/07/13 02:54:57;;;;;;;;;53.25;45.00;;;;;19.24;62.39;101612.84;6186514;23;48908;-75
2023/07/13 02:57:22;;;;;;;;;53.25;44.75;;;;;19.42;62.54;101642.94;6185890;23;45266;-75
2023/07/13 02:59:47;;;;;;;;;54.50;45.50;;;;;19.41;62.98;101647.44;6184315;23;45692;-75
2023/07/13 03:02:13;;;;;;;;;53.00;45.25;;;;;19.36;62.70;101637.97;6186175;23;45259;-76
2023/07/13 03:04:40;;;;;;;;;48.25;42.00;;;;;19.34;62.94;101626.50;6184095;23;45352;-75
2023/07/13 03:07:06;;;;;;;;;53.00;45.00;;;;;19.40;62.77;101639.47;6185229;23;45663;-75
2023/07/13 03:09:33;;;;;;;;;53.50;44.75;;;;;19.38;62.07;101641.41;6186151;23;45306;-76
2023/07/13 03:11:59;;;;;;;;;50.00;42.75;;;;;19.35;62.83;101653.22;6185041;23;45171;-76
2023/07/13 03:14:24;;;;;;;;;53.50;45.25;;;;;19.37;62.39;101648.56;6186121;23;45260;-74
2023/07/13 03:16:49;;;;;;;;;56.67;47.33;;;;;19.36;61.92;101648.72;6158921;23;45251;-75
2023/07/13 03:19:15;;;;;;;;;55.25;46.25;;;;;19.17;62.61;101625.84;6186584;23;45247;-75
2023/07/13 03:21:40;;;;;;;;;60.25;49.75;;;;;19.31;62.14;101651.69;6185961;23;45190;-75
2023/07/13 03:24:06;;;;;;;;;59.33;49.00;;;;;19.22;62.96;101646.97;6185767;23;45313;-75
2023/07/13 03:26:31;;;;;;;;;59.33;49.33;;;;;19.23;62.24;101651.41;6183483;23;45913;-75
2023/07/13 03:28:57;;;;;;;;;37.50;34.00;;;;;19.16;62.11;101648.28;6158843;23;45359;-74
2023/07/13 03:31:28;;;;;;;;;53.67;45.67;;;;;19.13;61.66;101648.50;6183821;23;45397;-75
2023/07/13 03:33:53;;;;;;;;;53.75;45.75;;;;;19.08;62.74;101653.31;6185830;23;45356;-75
2023/07/13 03:36:26;;;;;;;;;56.67;47.33;;;;;19.10;62.24;101662.13;6185244;23;45306;-74
2023/07/13 03:38:54;;;;;;;;;51.75;44.25;;;;;19.02;62.33;101663.59;6186322;23;45305;-74
2023/07/13 03:41:20;;;;;;;;;48.50;41.00;;;;;19.01;64.06;101654.69;6184612;23;45477;-74
2023/07/13 03:43:47;;;;;;;;;48.00;41.75;;;;;19.06;63.62;101665.09;6185549;23;45218;-74
2023/07/13 03:46:13;;;;;;;;;47.00;41.25;;;;;18.92;63.38;101638.38;6184721;23;45410;-74
2023/07/13 03:48:42;;;;;;;;;50.67;43.33;;;;;19.07;63.80;101672.19;6185955;23;45441;-74
2023/07/13 03:51:08;;;;;;;;;51.67;42.67;;;;;19.04;65.06;101670.56;6185550;23;45645;-74
2023/07/13 03:53:38;;;;;;;;;41.25;36.75;;;;;18.95;64.38;101654.25;6183343;23;46227;-75
2023/07/13 03:56:03;;;;;;;;;38.75;35.25;;;;;19.06;65.61;101674.00;6182980;23;46034;-75
2023/07/13 03:58:37;;;;;;;;;35.00;31.75;;;;;19.00;64.99;101661.03;6183013;23;45268;-75
2023/07/13 04:01:05;;;;;;;;;51.25;43.25;;;;;19.03;64.82;101668.00;6185821;23;45235;-75
2023/07/13 04:03:32;;;;;;;;;54.33;44.00;;;;;19.05;64.95;101676.78;6185215;23;45629;-74
2023/07/13 04:06:14;;;;;;;;;46.75;38.25;;;;;19.06;66.45;101679.38;6182706;23;45330;-75
2023/07/13 04:08:40;;;;;;;;;43.00;35.67;;;;;19.01;65.36;101686.84;6184976;23;45294;-74
2023/07/13 04:11:06;;;;;;;;;37.75;33.75;;;;;18.90;65.58;101673.34;6184263;23;45363;-74
2023/07/13 04:13:31;;;;;;;;;34.75;33.00;;;;;18.95;66.25;101689.97;6182793;23;45418;-74
2023/07/13 04:15:57;;;;;;;;;37.75;34.50;;;;;18.93;66.06;101691.91;6184453;23;45394;-74
2023/07/13 04:18:22;;;;;;;;;39.33;35.00;;;;;18.94;66.34;101695.44;6185223;23;45199;-74
2023/07/13 04:20:49;;;;;;;;;43.75;37.25;;;;;18.95;66.33;101694.47;6185198;23;45486;-74
2023/07/13 04:23:15;;;;;;;;;44.75;38.25;;;;;18.89;66.79;101687.69;6158027;23;47051;-75
2023/07/13 04:25:52;;;;;;;;;42.00;37.25;;;;;18.87;66.94;101683.41;6184528;23;45209;-74
2023/07/13 04:28:17;;;;;;;;;44.75;39.00;;;;;18.98;66.26;101707.66;6184836;23;45238;-74
2023/07/13 04:30:43;;;;;;;;;45.67;38.67;;;;;18.81;67.37;101687.38;6157858;23;45502;-74
2023/07/13 04:33:09;;;;;;;;;51.25;43.25;;;;;18.95;67.39;101711.41;6183451;23;47724;-74
2023/07/13 04:35:34;;;;;;;;;45.33;38.00;;;;;18.97;67.94;101719.38;6185156;23;45382;-74
2023/07/13 04:38:00;;;;;;;;;45.33;38.67;;;;;18.83;67.73;101689.94;6189487;23;45360;-74
2023/07/13 04:40:27;;;;;;;;;54.50;45.75;;;;;18.95;69.41;101714.09;6188341;23;45524;-75
2023/07/13 04:42:52;;;;;;;;;49.00;42.00;;;;;18.96;68.21;101706.91;6185730;23;45345;-75
2023/07/13 04:45:17;;;;;;;;;48.25;41.50;;;;;18.99;67.89;101709.38;6186010;23;45375;-75
2023/07/13 04:47:43;;;;;;;;;52.25;44.00;;;;;18.98;68.14;101703.16;6188060;23;45224;-76
2023/07/13 04:50:10;;;;;;;;;47.67;40.33;;;;;18.95;67.94;101708.72;6188304;23;45203;-75
2023/07/13 04:52:36;;;;;;;;;50.33;42.67;;;;;18.89;68.50;101687.69;6187054;23;45197;-75
2023/07/13 04:55:02;;;;;;;;;54.00;44.75;;;;;18.98;68.48;101707.66;6186066;23;45557;-75
2023/07/13 04:57:28;;;;;;;;;48.67;40.00;;;;;19.00;68.96;101714.66;6185480;23;45188;-75
2023/07/13 04:59:53;;;;;;;;;54.33;45.67;;;;;18.79;69.21;101678.56;6183447;23;45397;-75
2023/07/13 05:02:21;;;;;;;;;54.33;45.33;;;;;18.97;69.08;101706.81;6185417;23;46542;-76
2023/07/13 05:04:48;;;;;;;;;52.75;44.50;;;;;19.02;69.47;101725.25;6185366;23;45334;-76
2023/07/13 05:07:13;;;;;;;;;52.00;44.00;;;;;18.97;69.70;101712.19;6184529;23;45599;-76
2023/07/13 05:09:39;;;;;;;;;57.00;47.33;;;;;18.92;71.58;101692.00;6183240;23;46007;-76
2023/07/13 05:12:06;;;;;;;;;53.75;45.25;;;;;19.06;69.95;101718.72;6184288;23;46274;-76
2023/07/13 05:14:31;;;;;;;;;53.33;45.00;;;;;18.94;69.63;101698.13;6185440;23;45539;-76
2023/07/13 05:16:57;;;;;;;;;51.00;43.50;;;;;19.08;71.05;101724.84;6185131;23;45432;-76
2023/07/13 05:19:22;;;;;;;;;56.00;47.00;;;;;19.12;70.71;101718.31;6157387;23;45275;-76
2023/07/13 05:21:48;;;;;;;;;48.00;41.00;;;;;19.07;71.69;101709.72;6182604;23;46008;-76
2023/07/13 05:24:13;;;;;;;;;56.00;45.67;;;;;19.16;70.10;101718.00;6183405;23;45491;-75
2023/07/13 05:26:38;;;;;;;;;54.25;45.50;;;;;19.17;71.27;101733.13;6183334;23;45283;-76
2023/07/13 05:29:03;;;;;;;;;47.33;41.33;;;;;19.14;70.74;101730.66;6184881;23;45391;-76
2023/07/13 05:31:29;;;;;;;;;51.67;44.00;;;;;19.20;69.89;101735.63;6184471;23;46262;-77
2023/07/13 05:33:54;;;;;;;;;47.50;41.00;;;;;19.18;69.55;101729.47;6158128;23;45336;-77
2023/07/13 05:36:20;;;;;;;;;52.75;43.75;;;;;19.21;71.18;101728.41;6183442;23;45292;-78
2023/07/13 05:38:45;;;;;;;;;56.00;46.50;;;;;19.25;70.67;101733.47;6184327;23;47139;-76
2023/07/13 05:41:10;;;;;;;;;39.33;35.33;;;;;19.25;69.83;101741.50;6156375;23;47840;-77
2023/07/13 05:43:35;;;;;;;;;55.67;46.00;;;;;19.29;70.24;101746.66;6156824;23;51024;-76
2023/07/13 05:46:01;;;;;;;;;50.00;43.00;;;;;19.21;70.42;101723.91;6184996;23;45449;-76
2023/07/13 05:48:26;;;;;;;;;60.50;47.75;;;;;19.23;69.44;101726.50;6181925;23;45398;-76
2023/07/13 05:50:51;;;;;;;;;44.67;39.00;;;;;19.33;69.65;101745.50;6182785;23;46104;-75
2023/07/13 05:53:17;;;;;;;;;52.25;44.50;;;;;19.33;72.31;101729.41;6182103;23;45572;-75
2023/07/13 05:55:44;;;;;;;;;53.25;45.25;;;;;19.44;71.02;101745.63;6183391;23;45239;-75
2023/07/13 05:58:10;;;;;;;;;55.50;46.50;;;;;19.50;70.41;101742.56;6182505;23;45804;-75
2023/07/13 06:00:36;;;;;;;;;56.00;46.67;;;;;19.52;70.40;101740.59;6184905;23;45527;-75
2023/07/13 06:03:01;;;;;;;;;49.67;42.67;;;;;19.49;69.74;101741.69;6182854;23;57148;-76
2023/07/13 06:05:28;;;;;;;;;49.00;42.00;;;;;19.53;68.78;101748.56;6185179;23;45304;-76
2023/07/13 06:07:53;;;;;;;;;43.33;37.33;;;;;19.45;69.12;101736.63;6182088;23;45402;-77
2023/07/13 06:10:18;;;;;;;;;41.00;36.50;;;;;19.55;68.49;101754.66;6184557;23;45354;-76
2023/07/13 06:12:43;;;;;;;;;49.33;41.33;;;;;19.59;70.29;101760.69;6183414;23;45633;-77
2023/07/13 06:15:09;;;;;;;;;47.00;40.67;;;;;19.58;69.41;101751.78;6185121;23;45312;-76
2023/07/13 06:17:34;;;;;;;;;48.75;41.25;;;;;19.59;68.99;101747.28;6184899;23;45214;-77
2023/07/13 06:20:00;;;;;;;;;33.00;32.00;;;;;19.56;68.71;101739.44;6185296;23;45626;-77
2023/07/13 06:22:25;;;;;;;;;50.50;43.00;;;;;19.62;70.29;101750.59;6183948;23;45711;-76
2023/07/13 06:24:51;;;;;;;;;36.75;33.00;;;;;19.79;68.86;101768.22;6182751;23;45315;-77
2023/07/13 06:27:17;;;;;;;;;41.25;36.25;;;;;19.74;68.51;101759.59;6184710;23;45282;-78
2023/07/13 06:29:44;;;;;;;;;44.25;39.25;;;;;19.73;68.83;101761.44;6185118;23;45227;-77
2023/07/13 06:32:10;;;;;;;;;34.75;32.75;;;;;19.77;68.88;101771.00;6157595;23;45276;-77
2023/07/13 06:34:35;;;;;;;;;47.00;39.33;;;;;19.79;69.49;101773.59;6185573;23;45234;-77
2023/07/13 06:37:01;;;;;;;;;46.67;39.00;;;;;19.86;69.45;101774.84;6189277;23;45159;-77
2023/07/13 06:39:26;;;;;;;;;43.00;38.00;;;;;19.84;69.06;101770.56;6188959;23;45214;-76
2023/07/13 06:41:51;;;;;;;;;47.50;41.00;;;;;19.84;67.82;101768.72;6189689;23;45581;-77
2023/07/13 06:44:17;;;;;;;;;49.50;42.50;;;;;19.86;69.54;101777.53;6189453;23;45365;-77
2023/07/13 06:46:42;;;;;;;;;31.33;30.67;;;;;19.83;68.62;101760.81;6189704;23;45395;-77
2023/07/13 06:49:09;;;;;;;;;56.33;46.67;;;;;19.89;70.71;101765.72;6188756;23;45572;-77
2023/07/13 06:51:34;;;;;;;;;53.25;45.00;;;;;19.92;71.17;101757.47;6185590;23;45266;-77
2023/07/13 06:53:59;;;;;;;;;51.25;43.50;;;;;20.08;69.87;101774.19;6182968;23;45380;-77
2023/07/13 06:56:25;;;;;;;;;45.33;39.33;;;;;20.03;70.42;101755.72;6182974;23;45437;-76
2023/07/13 06:58:50;;;;;;;;;44.33;35.67;;;;;20.22;69.25;101780.28;6184931;23;45282;-76
2023/07/13 07:01:15;;;;;;;;;26.25;26.25;;;;;20.29;70.38;101777.22;6157773;23;54532;-76
2023/07/13 07:03:41;;;;;;;;;33.50;31.00;;;;;20.34;70.47;101769.66;6185937;23;45254;-76
2023/07/13 07:06:14;;;;;;;;;14.25;13.00;;;;;20.38;68.86;101776.53;6186170;23;45287;-76
2023/07/13 07:08:40;;;;;;;;;53.00;41.75;;;;;20.34;68.61;101766.97;6186194;23;45919;-76
2023/07/13 07:11:08;;;;;;;;;54.75;44.25;;;;;20.33;68.61;101768.81;6185967;23;45397;-76
2023/07/13 07:13:33;;;;;;;;;16.00;14.75;;;;;20.49;68.92;101790.91;6185672;23;45226;-76
2023/07/13 07:16:00;;;;;;;;;36.50;33.00;;;;;20.50;68.35;101789.06;6184064;23;45207;-77
2023/07/13 07:18:25;;;;;;;;;51.50;43.75;;;;;20.43;68.21;101775.22;6184187;23;45318;-76
2023/07/13 07:20:53;;;;;;;;;18.00;18.00;;;;;20.51;69.65;101785.44;6158919;23;45191;-76
2023/07/13 07:23:18;;;;;;;;;24.75;24.75;;;;;20.61;69.82;101795.41;6159020;23;45310;-76
2023/07/13 07:25:44;;;;;;;;;29.50;29.25;;;;;20.47;70.02;101775.88;6185420;23;45309;-76
2023/07/13 07:28:10;;;;;;;;;34.25;31.50;;;;;20.42;70.18;101778.88;6158836;23;47225;-76
2023/07/13 07:30:35;;;;;;;;;12.00;11.50;;;;;20.55;70.20;101787.75;6185926;23;45396;-75
2023/07/13 07:33:01;;;;;;;;;18.50;18.50;;;;;20.47;69.81;101773.19;6185692;23;45433;-76
2023/07/13 07:35:26;;;;;;;;;25.75;25.75;;;;;20.54;70.58;101788.75;6186062;23;45321;-76
2023/07/13 07:37:52;;;;;;;;;14.50;14.50;;;;;20.52;70.04;101781.75;6183212;23;47114;-76
2023/07/13 07:40:20;;;;;;;;;15.50;15.50;;;;;20.58;69.82;101809.03;6186266;23;45204;-76
2023/07/13 07:42:46;;;;;;;;;16.00;16.00;;;;;20.48;68.91;101781.16;6183226;23;45235;-76
2023/07/13 07:45:13;;;;;;;;;22.25;22.25;;;;;20.59;70.25;101786.56;6185995;23;45129;-76
2023/07/13 07:47:39;;;;;;;;;24.25;24.25;;;;;21.01;69.06;101809.41;6185896;23;45378;-76
2023/07/13 07:50:05;;;;;;;;;20.75;19.75;;;;;21.27;68.46;101811.03;6186295;23;45278;-76
2023/07/13 07:52:30;;;;;;;;;19.75;19.75;;;;;21.48;68.61;101813.06;6185341;23;45296;-76
2023/07/13 07:54:55;;;;;;;;;21.25;21.25;;;;;21.67;66.74;101819.63;6158673;23;45681;-76
2023/07/13 07:57:21;;;;;;;;;29.67;27.33;;;;;21.84;66.08;101807.53;6158440;23;47903;-77
2023/07/13 07:59:46;;;;;;;;;18.25;18.25;;;;;21.88;65.00;101803.63;6185829;23;47045;-76
2023/07/13 08:02:11;;;;;;;;;6.25;4.75;;;;;22.06;64.14;101804.03;6185790;23;45236;-76
2023/07/13 08:04:37;;;;;;;;;30.25;28.50;;;;;22.13;62.82;101802.56;6185649;23;45526;-76
2023/07/13 08:07:02;;;;;;;;;32.67;31.67;;;;;22.16;63.55;101800.47;6185360;23;52508;-76
2023/07/13 08:09:28;;;;;;;;;26.25;24.75;;;;;22.30;63.83;101816.41;6186229;23;45321;-77
2023/07/13 08:11:54;;;;;;;;;28.25;28.25;;;;;22.44;63.42;101796.44;6185409;23;45579;-77
2023/07/13 08:14:20;;;;;;;;;27.33;27.33;;;;;22.66;63.39;101812.59;6157675;23;45615;-77
2023/07/13 08:16:45;;;;;;;;;46.75;41.00;;;;;22.87;59.78;101815.38;6158516;23;46210;-76
2023/07/13 08:19:11;;;;;;;;;48.67;41.33;;;;;22.88;59.86;101787.41;6183717;23;45187;-77
2023/07/13 08:21:37;;;;;;;;;49.50;42.00;;;;;23.24;59.37;101818.56;6186025;23;45301;-76
2023/07/13 08:24:02;;;;;;;;;38.00;34.67;;;;;23.07;59.51;101819.97;6158726;23;45545;-77
2023/07/13 08:26:27;;;;;;;;;48.25;41.00;;;;;23.28;58.51;101815.47;6185476;23;46030;-77
2023/07/13 08:28:53;;;;;;;;;43.33;37.67;;;;;23.47;57.64;101800.44;6185305;23;54391;-76
2023/07/13 08:31:20;;;;;;;;;20.00;13.33;;;;;23.63;57.61;101815.19;6183746;23;45413;-77
2023/07/13 08:33:48;;;;;;;;;33.00;28.67;;;;;23.52;57.40;101784.72;6185933;23;45351;-77
2023/07/13 08:36:13;;;;;;;;;40.33;36.00;;;;;23.61;57.37;101795.56;6161421;23;45277;-77
2023/07/13 08:38:39;;;;;;;;;31.25;28.75;;;;;23.83;58.23;101805.38;6190091;23;45132;-77
2023/07/13 08:44:44;;;;;;;;;113.75;113.75;;;;;23.79;55.21;101803.91;6189451;23;45447;-77
2023/07/13 08:47:24;;;;;;;;;276.00;271.33;;;;;23.16;54.30;101722.06;6187617;23;45715;-76
2023/07/13 08:50:01;;;;;;;;;129.40;120.80;;;;;23.08;53.88;101718.28;6162716;23;45446;-77
2023/07/13 08:52:47;;;;;;;;;56.00;45.67;;;;;22.98;54.40;101712.81;6183702;23;45358;-77
2023/07/13 08:55:23;;;;;;;;;124.40;117.80;;;;;22.97;54.91;101721.88;6186391;23;45404;-77
2023/07/13 08:58:14;;;;;;;;;60.50;48.50;;;;;22.90;55.19;101717.16;6185143;23;45593;-77
2023/07/13 09:01:09;;;;;;;;;159.33;155.67;;;;;22.98;55.67;101747.88;6184918;23;45698;-78
2023/07/13 09:04:35;;;;;;;;;55.33;43.00;;;;;23.66;54.71;101787.91;6185768;23;45282;-77
2023/07/13 09:07:15;;;;;;;;;165.00;160.33;;;;;24.29;54.25;101815.72;6184633;23;45267;-77
2023/07/13 09:09:47;;;;;;;;;155.67;153.00;;;;;24.56;53.64;101804.31;6184793;23;45632;-77
2023/07/13 09:12:28;;;;;;;;;136.25;130.50;;;;;23.98;51.44;101701.34;6184532;23;45513;-77
2023/07/13 09:14:57;;;;;;;;;294.60;294.20;;;;;24.18;51.72;101761.78;6182965;23;45251;-77
2023/07/13 09:17:48;;;;;;;;;58.80;49.20;;;;;23.73;51.29;101721.56;6183178;23;45432;-77
2023/07/13 09:21:01;;;;;;;;;33.67;32.67;;;;;23.72;52.12;101765.75;6184729;23;46229;-76
2023/07/13 09:23:41;;;;;;;;;50.80;42.40;;;;;23.19;52.15;101724.47;6150436;23;45359;-77
2023/07/13 09:26:32;;;;;;;;;41.80;34.40;;;;;23.44;53.15;101776.41;6185109;23;45255;-77
2023/07/13 09:29:26;;;;;;;;;49.80;42.60;;;;;23.27;53.50;101781.34;6184951;23;45300;-77
2023/07/13 09:32:03;;;;;;;;;121.60;115.40;;;;;23.04;52.75;101776.19;6157244;23;45435;-77
2023/07/13 09:34:41;;;;;;;;;51.20;41.60;;;;;22.67;54.51;101740.66;6184987;23;45239;-77
2023/07/13 09:37:20;;;;;;;;;101.40;100.00;;;;;22.52;54.82;101731.94;6184799;23;45369;-77
2023/07/13 09:40:04;;;;;;;;;170.00;168.80;;;;;22.70;54.24;101761.97;6184527;23;45533;-77
2023/07/13 09:42:56;;;;;;;;;141.67;141.67;;;;;22.36;55.25;101714.44;6184626;23;45426;-77
2023/07/13 09:45:37;;;;;;;;;144.00;143.67;;;;;22.40;54.93;101727.56;6166125;23;45303;-77
2023/07/13 09:48:25;;;;;;;;;60.00;48.33;;;;;22.53;54.25;101755.22;6157681;23;45222;-77
2023/07/13 09:51:07;;;;;;;;;106.00;106.00;;;;;22.63;54.67;101785.84;6184759;23;45444;-77
2023/07/13 09:53:58;;;;;;;;;122.60;116.40;;;;;22.64;54.56;101759.75;6185117;23;46519;-77
2023/07/13 09:56:37;;;;;;;;;33.00;29.80;;;;;22.61;55.81;101760.00;6132707;23;45260;-77
2023/07/13 09:59:24;;;;;;;;;53.60;42.40;;;;;23.18;53.18;101849.63;6157846;23;45474;-77
2023/07/13 10:02:17;;;;;;;;;157.33;154.33;;;;;23.10;54.56;101814.31;6184988;23;45227;-77
2023/07/13 10:04:48;;;;;;;;;32.50;26.50;;;;;22.87;52.74;101776.75;6157695;23;45506;-77
2023/07/13 10:07:29;;;;;;;;;121.75;120.75;;;;;23.12;53.94;101785.38;6156880;23;45413;-77
2023/07/13 10:10:13;;;;;;;;;165.00;160.67;;;;;23.11;54.30;101789.03;6157504;23;45295;-77
2023/07/13 10:12:42;;;;;;;;;124.75;121.00;;;;;23.50;53.80;101844.25;6181707;23;45544;-77
2023/07/13 10:15:29;;;;;;;;;53.00;43.25;;;;;22.77;53.65;101734.34;6157729;23;47120;-77
2023/07/13 10:17:58;;;;;;;;;164.00;160.00;;;;;23.01;52.92;101790.78;6120404;23;45468;-77
2023/07/13 10:20:33;;;;;;;;;125.25;122.75;;;;;22.83;54.34;101789.63;6122212;23;45293;-77
2023/07/13 10:23:22;;;;;;;;;51.00;43.25;;;;;23.21;54.06;101856.59;6121962;23;45421;-76
2023/07/13 10:26:18;;;;;;;;;150.00;149.00;;;;;23.18;53.83;101836.13;6096856;23;45716;-77
2023/07/13 10:32:25;;;;;;;;;51.00;42.75;;;;;22.80;54.22;101784.50;6120937;23;45427;-77
2023/07/13 10:35:07;;;;;;;;;141.50;135.00;;;;;22.69;53.50;101776.44;6096924;23;45518;-77
2023/07/13 10:38:13;;;;;;;;;119.60;114.20;;;;;22.93;54.40;101792.44;6095690;23;46123;-76
2023/07/13 10:41:01;;;;;;;;;39.00;35.33;;;;;23.18;54.58;101833.44;6091613;23;45325;-78
2023/07/13 10:44:13;;;;;;;;;38.00;34.25;;;;;22.94;56.01;101762.59;6102470;23;45397;-78
2023/07/13 10:46:50;;;;;;;;;133.00;127.50;;;;;23.01;53.77;101749.47;6126689;23;45470;-78
2023/07/13 10:49:28;;;;;;;;;114.20;108.00;;;;;23.39;53.07;101809.19;6127534;23;46403;-78
2023/07/13 10:52:39;;;;;;;;;139.50;133.50;;;;;23.18;53.17;101773.19;6102016;23;45451;-78
2023/07/13 10:55:45;;;;;;;;;11.33;10.33;;;;;23.67;53.83;101853.59;6108193;23;45383;-77
2023/07/13 10:58:34;;;;;;;;;124.40;117.80;;;;;23.60;52.61;101866.78;6182685;23;45472;-77
2023/07/13 11:01:19;;;;;;;;;136.67;136.67;;;;;23.34;54.61;101833.84;6163791;23;45499;-77
2023/07/13 11:04:14;;;;;;;;;58.00;48.80;;;;;23.54;53.18;101867.31;6159028;23;45265;-78
2023/07/13 11:06:51;;;;;;;;;59.00;48.00;;;;;23.47;52.33;101851.75;6159670;23;45334;-77
2023/07/13 11:09:19;;;;;;;;;33.33;29.67;;;;;23.58;53.35;101857.09;6184321;23;45648;-77
2023/07/13 11:11:49;;;;;;;;;28.50;28.25;;;;;23.72;51.84;101854.91;6183628;23;46138;-77
2023/07/13 11:14:29;;;;;;;;;16.00;16.00;;;;;23.90;51.67;101855.19;6185833;23;45417;-77
2023/07/13 11:16:57;;;;;;;;;19.80;17.20;;;;;24.22;53.01;101852.41;6183572;23;45215;-77
2023/07/13 11:19:38;;;;;;;;;115.80;109.20;;;;;24.45;50.53;101848.53;6159096;23;45496;-78
2023/07/13 11:22:12;;;;;;;;;57.75;48.25;;;;;24.66;51.99;101821.41;6185606;23;45692;-78
2023/07/13 11:24:59;;;;;;;;;30.80;25.80;;;;;24.95;50.52;101830.47;6184001;23;45562;-78
2023/07/13 11:27:45;;;;;;;;;51.00;41.67;;;;;24.94;53.85;101801.69;6183133;23;45183;-78